createdAt,value
2017-06-30T00:00:38.294Z,1.85
2017-06-30T00:03:05.787Z,1.30
2017-06-30T00:05:33.292Z,1.20
2017-06-30T00:08:00.774Z,1.17
2017-06-30T00:10:28.275Z,1.40
2017-06-30T00:12:55.770Z,1.30
2017-06-30T00:15:23.278Z,1.27
2017-06-30T00:17:50.774Z,1.30
2017-06-30T00:20:18.258Z,1.30
2017-06-30T00:22:45.758Z,1.27
2017-06-30T00:25:14.070Z,1.20
2017-06-30T00:27:41.598Z,1.47
2017-06-30T00:30:09.855Z,1.00
2017-06-30T00:32:37.364Z,1.48
2017-06-30T00:35:04.849Z,1.42
2017-06-30T00:37:32.348Z,1.33
2017-06-30T00:39:59.830Z,1.60
2017-06-30T00:42:27.341Z,1.20
2017-06-30T00:44:54.850Z,1.20
2017-06-30T00:47:22.363Z,1.67
2017-06-30T00:49:49.861Z,1.47
2017-06-30T00:52:17.398Z,1.58
2017-06-30T00:54:44.875Z,1.42
2017-06-30T00:57:12.363Z,1.40
2017-06-30T00:59:40.642Z,1.55
2017-06-30T01:02:08.895Z,1.53
2017-06-30T01:04:36.400Z,1.40
2017-06-30T01:07:04.707Z,1.77
2017-06-30T01:09:32.211Z,1.42
2017-06-30T01:11:59.699Z,1.50
2017-06-30T01:14:27.197Z,2.10
2017-06-30T01:16:54.694Z,1.73
2017-06-30T01:19:22.188Z,1.57
2017-06-30T01:21:49.671Z,2.13
2017-06-30T01:24:17.942Z,1.40
2017-06-30T01:26:45.417Z,1.70
2017-06-30T01:29:12.918Z,1.60
2017-06-30T01:31:40.398Z,1.30
2017-06-30T01:34:08.648Z,1.60
2017-06-30T01:36:36.142Z,1.00
2017-06-30T01:39:04.391Z,1.20
2017-06-30T01:41:32.671Z,1.27
2017-06-30T01:44:00.922Z,1.45
2017-06-30T01:46:28.422Z,1.50
2017-06-30T01:48:55.907Z,1.47
2017-06-30T01:51:23.414Z,1.40
2017-06-30T01:53:51.685Z,1.58
2017-06-30T01:56:19.183Z,1.60
2017-06-30T01:58:46.678Z,1.80
2017-06-30T02:01:14.187Z,1.83
2017-06-30T02:03:41.672Z,2.12
2017-06-30T02:06:09.175Z,2.17
2017-06-30T02:08:36.659Z,3.17
2017-06-30T02:11:04.152Z,2.80
2017-06-30T02:13:32.434Z,2.60
2017-06-30T02:15:59.920Z,2.70
2017-06-30T02:18:27.431Z,2.60
2017-06-30T02:20:55.341Z,3.12
2017-06-30T02:23:22.855Z,3.67
2017-06-30T02:25:50.339Z,3.95
2017-06-30T02:28:18.609Z,3.53
2017-06-30T02:30:46.866Z,3.12
2017-06-30T02:33:14.363Z,3.08
2017-06-30T02:35:41.852Z,4.07
2017-06-30T02:38:09.348Z,3.57
2017-06-30T02:40:36.850Z,3.50
2017-06-30T02:43:04.350Z,3.43
2017-06-30T02:45:31.851Z,3.60
2017-06-30T02:47:59.344Z,4.17
2017-06-30T02:50:26.824Z,3.60
2017-06-30T02:52:54.350Z,3.75
2017-06-30T02:55:21.834Z,3.60
2017-06-30T02:57:50.085Z,3.50
2017-06-30T03:00:17.590Z,3.72
2017-06-30T03:02:45.075Z,3.50
2017-06-30T03:05:12.578Z,3.80
2017-06-30T03:07:40.062Z,3.45
2017-06-30T03:10:07.555Z,3.30
2017-06-30T03:12:35.039Z,3.53
2017-06-30T03:15:02.554Z,2.80
2017-06-30T03:17:30.054Z,3.28
2017-06-30T03:19:57.538Z,2.60
2017-06-30T03:22:25.036Z,2.25
2017-06-30T03:24:52.516Z,2.20
2017-06-30T03:27:20.018Z,2.00
2017-06-30T03:29:47.507Z,2.25
2017-06-30T03:32:15.004Z,2.45
2017-06-30T03:34:42.492Z,2.50
2017-06-30T03:37:09.991Z,2.15
2017-06-30T03:39:37.482Z,2.55
2017-06-30T03:42:04.975Z,2.10
2017-06-30T03:44:33.234Z,2.23
2017-06-30T03:47:00.728Z,1.95
2017-06-30T03:49:28.212Z,2.55
2017-06-30T03:51:55.706Z,2.10
2017-06-30T03:54:23.194Z,2.30
2017-06-30T03:56:50.718Z,2.25
2017-06-30T03:59:18.202Z,3.25
2017-06-30T04:01:45.678Z,2.60
2017-06-30T04:04:13.178Z,2.40
2017-06-30T04:06:40.658Z,2.50
2017-06-30T04:09:08.174Z,2.10
2017-06-30T04:11:36.174Z,2.90
2017-06-30T04:14:04.442Z,2.40
2017-06-30T04:16:32.715Z,2.50
2017-06-30T04:19:00.219Z,2.70
2017-06-30T04:21:27.703Z,2.12
2017-06-30T04:23:55.203Z,2.00
2017-06-30T04:26:22.687Z,2.70
2017-06-30T04:28:50.167Z,2.03
2017-06-30T04:31:17.678Z,2.17
2017-06-30T04:33:45.177Z,1.80
2017-06-30T04:36:12.698Z,2.43
2017-06-30T04:38:40.190Z,2.10
2017-06-30T04:41:07.698Z,2.30
2017-06-30T04:43:35.195Z,2.30
2017-06-30T04:46:02.692Z,1.80
2017-06-30T04:48:30.174Z,1.80
2017-06-30T04:50:57.678Z,2.07
2017-06-30T04:53:25.930Z,2.10
2017-06-30T04:55:53.442Z,2.30
2017-06-30T04:58:20.927Z,2.58
2017-06-30T05:00:48.428Z,1.83
2017-06-30T05:03:16.686Z,1.90
2017-06-30T05:05:44.939Z,2.17
2017-06-30T05:08:12.442Z,1.80
2017-06-30T05:10:39.939Z,2.08
2017-06-30T05:13:07.442Z,2.60
2017-06-30T05:15:34.949Z,1.80
2017-06-30T05:18:02.743Z,2.25
2017-06-30T05:20:30.990Z,2.72
2017-06-30T05:22:59.022Z,2.33
2017-06-30T05:25:26.503Z,2.90
2017-06-30T05:27:54.002Z,2.90
2017-06-30T05:30:22.245Z,2.70
2017-06-30T05:32:49.751Z,3.20
2017-06-30T05:35:17.246Z,3.30
2017-06-30T05:37:44.750Z,3.00
2017-06-30T05:40:13.000Z,3.43
2017-06-30T05:42:41.274Z,3.70
2017-06-30T05:45:08.754Z,3.23
2017-06-30T05:47:36.243Z,4.03
2017-06-30T05:50:03.740Z,3.83
2017-06-30T05:52:31.999Z,3.23
2017-06-30T05:55:00.275Z,3.83
2017-06-30T05:57:28.526Z,3.62
2017-06-30T05:59:56.036Z,3.43
2017-06-30T06:02:23.510Z,3.10
2017-06-30T06:04:51.002Z,3.60
2017-06-30T06:07:18.485Z,3.33
2017-06-30T06:09:46.742Z,3.37
2017-06-30T06:12:14.214Z,3.40
2017-06-30T06:14:42.480Z,3.43
2017-06-30T06:17:10.723Z,2.80
2017-06-30T06:19:38.206Z,3.30
2017-06-30T06:22:06.455Z,2.80
2017-06-30T06:24:34.293Z,3.13
2017-06-30T06:27:01.769Z,3.03
2017-06-30T06:29:29.246Z,3.17
2017-06-30T06:31:56.778Z,3.00
2017-06-30T06:34:24.270Z,3.00
2017-06-30T06:36:52.527Z,2.70
2017-06-30T06:39:20.006Z,3.00
2017-06-30T06:41:47.494Z,2.70
2017-06-30T06:44:14.973Z,3.33
2017-06-30T06:46:42.464Z,2.40
2017-06-30T06:49:10.707Z,2.83
2017-06-30T06:51:38.213Z,2.60
2017-06-30T06:54:05.722Z,3.47
2017-06-30T06:56:33.216Z,2.70
2017-06-30T06:59:00.694Z,2.70
2017-06-30T07:01:28.207Z,3.33
2017-06-30T07:03:55.686Z,2.40
2017-06-30T07:06:23.195Z,2.93
2017-06-30T07:08:50.670Z,2.40
2017-06-30T07:11:18.163Z,2.17
2017-06-30T07:13:45.654Z,2.37
2017-06-30T07:16:13.126Z,3.03
2017-06-30T07:18:40.620Z,2.63
2017-06-30T07:21:08.096Z,2.83
2017-06-30T07:23:35.581Z,2.60
2017-06-30T07:26:03.826Z,2.43
2017-06-30T07:28:31.326Z,2.57
2017-06-30T07:30:58.802Z,2.87
2017-06-30T07:33:26.285Z,2.60
2017-06-30T07:35:53.759Z,2.80
2017-06-30T07:38:21.291Z,3.20
2017-06-30T07:40:48.766Z,2.80
2017-06-30T07:43:16.273Z,2.60
2017-06-30T07:45:43.753Z,2.40
2017-06-30T07:48:11.226Z,2.47
2017-06-30T07:50:38.730Z,2.27
2017-06-30T07:53:06.220Z,2.03
2017-06-30T07:55:33.714Z,2.97
2017-06-30T07:58:01.198Z,2.87
2017-06-30T08:00:28.701Z,2.20
2017-06-30T08:02:56.177Z,2.70
2017-06-30T08:05:23.667Z,3.00
2017-06-30T08:07:51.147Z,2.10
2017-06-30T08:10:18.649Z,2.70
2017-06-30T08:12:46.898Z,2.43
2017-06-30T08:15:14.405Z,2.37
2017-06-30T08:17:41.894Z,2.80
2017-06-30T08:20:09.370Z,2.50
2017-06-30T08:22:36.867Z,1.80
2017-06-30T08:25:04.346Z,1.97
2017-06-30T08:27:31.862Z,1.90
2017-06-30T08:30:00.098Z,2.20
2017-06-30T08:32:27.592Z,2.00
2017-06-30T08:34:55.076Z,2.27
2017-06-30T08:37:22.582Z,2.23
2017-06-30T08:39:50.826Z,2.33
2017-06-30T08:42:18.311Z,2.57
2017-06-30T08:44:46.571Z,2.97
2017-06-30T08:47:14.050Z,2.47
2017-06-30T08:49:41.546Z,2.90
2017-06-30T08:52:09.025Z,2.90
2017-06-30T08:54:36.538Z,2.40
2017-06-30T08:57:04.015Z,2.57
2017-06-30T08:59:31.511Z,3.20
2017-06-30T09:01:59.772Z,2.93
2017-06-30T09:04:27.286Z,2.80
2017-06-30T09:06:54.773Z,2.47
2017-06-30T09:09:22.279Z,2.73
2017-06-30T09:11:49.758Z,2.43
2017-06-30T09:14:17.274Z,2.40
2017-06-30T09:16:44.746Z,3.90
2017-06-30T09:19:12.235Z,2.50
2017-06-30T09:21:39.732Z,2.50
2017-06-30T09:24:07.974Z,1.53
2017-06-30T09:26:35.469Z,1.43
2017-06-30T09:29:02.950Z,1.40
2017-06-30T09:31:30.442Z,1.33
2017-06-30T09:33:57.932Z,2.00
2017-06-30T09:36:25.418Z,1.67
2017-06-30T09:38:52.898Z,1.30
2017-06-30T09:41:20.391Z,1.23
2017-06-30T09:43:47.875Z,1.30
2017-06-30T09:46:15.376Z,1.27
2017-06-30T09:48:42.854Z,1.60
2017-06-30T09:51:11.115Z,1.17
2017-06-30T09:53:39.389Z,1.10
2017-06-30T09:56:07.645Z,1.70
2017-06-30T09:58:35.131Z,1.27
2017-06-30T10:01:02.658Z,1.53
2017-06-30T10:03:30.142Z,1.40
2017-06-30T10:05:57.632Z,1.40
2017-06-30T10:08:25.118Z,1.50
2017-06-30T10:10:52.604Z,1.40
2017-06-30T10:13:20.110Z,1.20
2017-06-30T10:15:47.574Z,1.30
2017-06-30T10:18:15.068Z,1.23
2017-06-30T10:20:43.311Z,1.00
2017-06-30T10:23:10.811Z,1.40
2017-06-30T10:25:38.287Z,0.90
2017-06-30T10:28:05.778Z,1.10
2017-06-30T10:30:33.251Z,1.47
2017-06-30T10:33:00.754Z,1.10
2017-06-30T10:35:28.236Z,1.47
2017-06-30T10:37:55.740Z,1.63
2017-06-30T10:40:23.214Z,1.50
2017-06-30T10:42:50.694Z,1.43
2017-06-30T10:45:18.178Z,1.27
2017-06-30T10:47:46.426Z,1.30
2017-06-30T10:50:13.919Z,1.00
2017-06-30T10:52:41.409Z,1.50
2017-06-30T10:55:08.911Z,1.20
2017-06-30T10:57:37.155Z,1.30
2017-06-30T11:00:04.646Z,1.27
2017-06-30T11:02:32.128Z,1.30
2017-06-30T11:04:59.602Z,1.23
2017-06-30T11:07:27.103Z,0.93
2017-06-30T11:09:55.347Z,1.50
2017-06-30T11:12:22.836Z,1.40
2017-06-30T11:14:50.327Z,1.40
2017-06-30T11:17:17.820Z,1.80
2017-06-30T11:19:45.299Z,1.17
2017-06-30T11:22:12.799Z,1.70
2017-06-30T11:24:40.278Z,1.50
2017-06-30T11:27:07.769Z,1.60
2017-06-30T11:29:35.244Z,1.60
2017-06-30T11:32:02.738Z,1.27
2017-06-30T11:34:30.206Z,1.30
2017-06-30T11:36:57.702Z,1.03
2017-06-30T11:39:25.194Z,1.27
2017-06-30T11:41:52.690Z,1.83
2017-06-30T11:44:20.932Z,1.10
2017-06-30T11:46:48.427Z,1.50
2017-06-30T11:49:15.913Z,1.47
2017-06-30T11:51:43.394Z,1.10
2017-06-30T11:54:10.882Z,1.50
2017-06-30T11:56:38.368Z,1.40
2017-06-30T11:59:05.866Z,1.40
2017-06-30T12:01:33.343Z,1.50
2017-06-30T12:04:00.849Z,1.37
2017-06-30T12:06:28.329Z,1.20
2017-06-30T12:08:55.827Z,0.90
2017-06-30T12:11:23.312Z,1.10
2017-06-30T12:13:50.818Z,1.30
2017-06-30T12:16:19.064Z,0.90
2017-06-30T12:18:46.562Z,1.00
2017-06-30T12:21:14.039Z,1.00
2017-06-30T12:23:41.521Z,1.00
2017-06-30T12:26:09.008Z,0.80
2017-06-30T12:28:37.250Z,1.57
2017-06-30T12:31:04.739Z,0.97
2017-06-30T12:33:32.989Z,0.80
2017-06-30T12:36:00.492Z,1.23
2017-06-30T12:38:27.974Z,1.23
2017-06-30T12:40:55.469Z,1.00
2017-06-30T12:43:22.952Z,0.87
2017-06-30T12:45:50.447Z,0.90
2017-06-30T12:48:17.926Z,1.03
2017-06-30T12:50:46.182Z,0.90
2017-06-30T12:53:13.666Z,0.73
2017-06-30T12:55:41.164Z,0.90
2017-06-30T12:58:08.650Z,1.20
2017-06-30T13:00:36.150Z,1.80
2017-06-30T13:03:03.637Z,1.10
2017-06-30T13:05:31.111Z,1.10
2017-06-30T13:07:58.602Z,0.90
2017-06-30T13:10:26.083Z,0.90
2017-06-30T13:12:53.592Z,2.20
2017-06-30T13:15:21.836Z,0.97
2017-06-30T13:17:49.326Z,1.10
2017-06-30T13:20:17.568Z,1.93
2017-06-30T13:22:45.062Z,1.20
2017-06-30T13:25:12.547Z,1.10
2017-06-30T13:27:40.040Z,1.40
2017-06-30T13:30:07.528Z,1.10
2017-06-30T13:32:35.030Z,1.27
2017-06-30T13:35:02.524Z,0.90
2017-06-30T13:37:30.792Z,1.13
2017-06-30T13:39:59.037Z,1.20
2017-06-30T13:42:26.534Z,0.90
2017-06-30T13:44:54.013Z,1.07
2017-06-30T13:47:21.491Z,1.00
2017-06-30T13:49:48.987Z,1.30
2017-06-30T13:52:17.227Z,0.77
2017-06-30T13:54:44.750Z,0.80
2017-06-30T13:57:12.233Z,0.97
2017-06-30T13:59:39.738Z,1.40
2017-06-30T14:02:07.214Z,1.70
2017-06-30T14:04:34.712Z,1.07
2017-06-30T14:07:02.182Z,1.07
2017-06-30T14:09:29.675Z,0.90
2017-06-30T14:11:57.163Z,0.80
2017-06-30T14:14:24.663Z,1.00
2017-06-30T14:16:52.146Z,0.80
2017-06-30T14:19:19.646Z,0.97
2017-06-30T14:21:47.128Z,1.20
2017-06-30T14:24:14.623Z,0.97
2017-06-30T14:26:42.094Z,0.93
2017-06-30T14:29:09.582Z,0.90
2017-06-30T14:31:37.823Z,1.10
2017-06-30T14:34:05.299Z,1.20
2017-06-30T14:36:33.570Z,1.27
2017-06-30T14:39:01.061Z,1.30
2017-06-30T14:41:28.559Z,1.00
2017-06-30T14:43:56.031Z,0.90
2017-06-30T14:46:24.294Z,1.10
2017-06-30T14:48:51.770Z,1.10
2017-06-30T14:51:20.023Z,1.30
2017-06-30T14:53:47.501Z,1.10
2017-06-30T14:56:15.763Z,1.00
2017-06-30T14:58:44.007Z,0.90
2017-06-30T15:01:11.510Z,1.20
2017-06-30T15:03:38.987Z,0.90
2017-06-30T15:06:06.467Z,1.03
2017-06-30T15:08:33.961Z,0.80
2017-06-30T15:11:01.435Z,1.13
2017-06-30T15:13:28.933Z,0.80
2017-06-30T15:15:56.413Z,1.13
2017-06-30T15:18:23.906Z,1.23
2017-06-30T15:20:51.374Z,1.20
2017-06-30T15:23:18.863Z,0.90
2017-06-30T15:25:46.344Z,1.10
2017-06-30T15:28:14.613Z,1.17
2017-06-30T15:30:42.861Z,1.73
2017-06-30T15:33:10.326Z,1.10
2017-06-30T15:35:37.821Z,1.20
2017-06-30T15:38:05.298Z,0.93
2017-06-30T15:40:32.794Z,1.00
2017-06-30T15:43:01.038Z,1.20
2017-06-30T15:45:28.535Z,1.30
2017-06-30T15:47:56.019Z,1.27
2017-06-30T15:50:23.510Z,0.93
2017-06-30T15:52:50.978Z,0.80
2017-06-30T15:55:18.470Z,1.03
2017-06-30T15:57:45.938Z,0.83
2017-06-30T16:00:13.434Z,0.80
2017-06-30T16:02:40.903Z,0.67
2017-06-30T16:05:08.391Z,1.00
2017-06-30T16:07:35.898Z,1.10
2017-06-30T16:10:03.374Z,1.20
2017-06-30T16:12:31.634Z,1.90
2017-06-30T16:14:59.122Z,1.20
2017-06-30T16:17:26.612Z,1.43
2017-06-30T16:19:54.082Z,1.00
2017-06-30T16:22:21.603Z,1.33
2017-06-30T16:24:49.078Z,1.10
2017-06-30T16:27:16.578Z,1.33
2017-06-30T16:29:44.063Z,1.00
2017-06-30T16:32:11.564Z,1.30
2017-06-30T16:34:39.038Z,0.90
2017-06-30T16:37:07.294Z,1.17
2017-06-30T16:39:34.776Z,1.10
2017-06-30T16:42:03.036Z,1.50
2017-06-30T16:44:31.282Z,1.20
2017-06-30T16:46:58.775Z,1.13
2017-06-30T16:52:06.775Z,1.37
2017-06-30T16:54:35.011Z,1.10
2017-06-30T16:57:02.510Z,1.20
2017-06-30T16:59:30.770Z,1.30
2017-06-30T17:01:58.238Z,1.27
2017-06-30T17:04:26.495Z,1.00
2017-06-30T17:06:53.975Z,1.60
2017-06-30T17:09:21.495Z,1.33
2017-06-30T17:11:48.966Z,1.00
2017-06-30T17:14:17.224Z,0.90
2017-06-30T17:16:44.697Z,1.30
2017-06-30T17:19:12.963Z,2.30
2017-06-30T17:21:41.201Z,1.60
2017-06-30T17:24:08.700Z,1.50
2017-06-30T17:26:36.972Z,2.10
2017-06-30T17:29:05.242Z,0.97
2017-06-30T17:31:33.488Z,1.57
2017-06-30T17:34:00.980Z,1.33
2017-06-30T17:36:29.241Z,2.17
2017-06-30T17:38:57.482Z,1.40
2017-06-30T17:41:24.994Z,0.87
2017-06-30T17:43:52.475Z,1.93
2017-06-30T17:46:19.966Z,1.10
2017-06-30T17:48:47.447Z,1.10
2017-06-30T17:51:14.947Z,1.50
2017-06-30T17:53:42.420Z,1.30
2017-06-30T17:56:09.914Z,1.27
2017-06-30T17:58:37.395Z,1.40
2017-06-30T18:01:04.887Z,1.10
2017-06-30T18:03:32.369Z,1.40
2017-06-30T18:06:01.453Z,1.30
2017-06-30T18:08:29.694Z,1.40
2017-06-30T18:10:57.186Z,1.50
2017-06-30T18:13:25.439Z,4.63
2017-06-30T18:15:52.942Z,11.30
2017-06-30T18:18:20.422Z,3.03
2017-06-30T18:20:47.915Z,2.03
2017-06-30T18:23:15.397Z,3.30
2017-06-30T18:25:42.898Z,5.20
2017-06-30T18:28:10.379Z,2.00
2017-06-30T18:30:38.631Z,2.13
2017-06-30T18:33:06.124Z,1.90
2017-06-30T18:35:33.610Z,2.90
2017-06-30T18:38:01.107Z,1.40
2017-06-30T18:40:28.587Z,1.37
2017-06-30T18:42:56.095Z,1.40
2017-06-30T18:45:23.579Z,1.30
2017-06-30T18:47:51.840Z,2.53
2017-06-30T18:50:19.311Z,3.00
2017-06-30T18:52:47.582Z,2.30
2017-06-30T18:55:15.060Z,2.80
2017-06-30T18:57:42.566Z,1.83
2017-06-30T19:00:10.054Z,1.90
2017-06-30T19:02:37.550Z,1.77
2017-06-30T19:05:05.028Z,2.10
2017-06-30T19:07:32.514Z,2.30
2017-06-30T19:10:00.000Z,1.60
2017-06-30T19:12:27.485Z,1.70
2017-06-30T19:14:54.975Z,1.80
2017-06-30T19:17:22.459Z,1.90
2017-06-30T19:19:49.950Z,2.07
2017-06-30T19:22:17.426Z,1.97
2017-06-30T19:24:44.919Z,3.03
2017-06-30T19:27:12.398Z,2.00
2017-06-30T19:29:39.896Z,1.30
2017-06-30T19:32:07.371Z,1.00
2017-06-30T19:34:34.869Z,1.20
2017-06-30T19:37:02.350Z,1.57
2017-06-30T19:39:29.839Z,1.30
2017-06-30T19:41:57.319Z,1.20
2017-06-30T19:44:24.824Z,3.17
2017-06-30T19:46:52.299Z,2.00
2017-06-30T19:49:19.772Z,2.00
2017-06-30T19:51:47.259Z,1.57
2017-06-30T19:54:14.743Z,1.70
2017-06-30T19:56:42.241Z,1.90
2017-06-30T19:59:09.727Z,1.97
2017-06-30T20:01:37.227Z,1.90
2017-06-30T20:04:04.707Z,2.57
2017-06-30T20:06:32.207Z,5.83
2017-06-30T20:08:59.690Z,1.97
2017-06-30T20:11:27.951Z,1.83
2017-06-30T20:13:56.191Z,2.00
2017-06-30T20:16:23.700Z,2.33
2017-06-30T20:18:51.188Z,1.60
2017-06-30T20:21:18.686Z,1.60
2017-06-30T20:23:46.164Z,1.30
2017-06-30T20:26:13.638Z,1.60
2017-06-30T20:28:41.143Z,1.00
2017-06-30T20:31:09.534Z,1.00
2017-06-30T20:33:37.790Z,1.17
2017-06-30T20:36:05.273Z,1.23
2017-06-30T20:38:33.544Z,1.00
2017-06-30T20:41:01.793Z,0.73
2017-06-30T20:43:29.287Z,0.97
2017-06-30T20:45:56.788Z,0.90
2017-06-30T20:48:24.294Z,1.03
2017-06-30T20:50:51.802Z,0.60
2017-06-30T20:53:19.278Z,1.00
2017-06-30T20:55:47.538Z,0.73
2017-06-30T20:58:15.023Z,0.67
2017-06-30T21:00:42.523Z,0.70
2017-06-30T21:03:10.000Z,0.77
2017-06-30T21:05:38.261Z,0.70
2017-06-30T21:08:05.998Z,0.90
2017-06-30T21:10:33.486Z,0.70
2017-06-30T21:13:00.974Z,0.60
2017-06-30T21:15:29.227Z,0.83
2017-06-30T21:17:57.479Z,0.97
2017-06-30T21:20:24.967Z,1.10
2017-06-30T21:22:53.216Z,1.20
2017-06-30T21:25:20.706Z,0.87
2017-06-30T21:27:48.194Z,1.10
2017-06-30T21:30:15.699Z,1.10
2017-06-30T21:32:43.173Z,0.93
2017-06-30T21:35:10.666Z,0.97
2017-06-30T21:37:38.141Z,0.97
2017-06-30T21:40:05.639Z,0.77
2017-06-30T21:42:33.120Z,1.00
2017-06-30T21:45:00.621Z,0.90
2017-06-30T21:47:28.868Z,0.60
2017-06-30T21:49:56.364Z,0.90
2017-06-30T21:52:23.858Z,0.97
2017-06-30T21:54:51.366Z,1.10
2017-06-30T21:57:19.618Z,1.00
2017-06-30T21:59:47.101Z,1.00
2017-06-30T22:02:15.365Z,0.80
2017-06-30T22:04:43.611Z,0.80
2017-06-30T22:07:11.106Z,0.97
2017-06-30T22:09:38.586Z,0.60
2017-06-30T22:12:06.090Z,0.83
2017-06-30T22:14:33.575Z,0.70
2017-06-30T22:17:01.067Z,0.73
2017-06-30T22:19:28.552Z,0.63
2017-06-30T22:21:56.058Z,0.70
2017-06-30T22:24:23.548Z,0.60
2017-06-30T22:26:51.020Z,0.90
2017-06-30T22:29:19.283Z,0.60
2017-06-30T22:31:46.780Z,0.63
2017-06-30T22:34:14.279Z,0.80
2017-06-30T22:36:41.763Z,0.97
2017-06-30T22:39:10.023Z,0.80
2017-06-30T22:41:37.502Z,0.83
2017-06-30T22:44:05.758Z,0.67
2017-06-30T22:46:33.238Z,0.50
2017-06-30T22:49:00.746Z,0.60
2017-06-30T22:51:28.230Z,0.80
2017-06-30T22:53:56.489Z,0.83
2017-06-30T22:56:23.963Z,0.60
2017-06-30T22:58:52.222Z,0.70
2017-06-30T23:01:20.473Z,0.80
2017-06-30T23:03:47.953Z,0.53
2017-06-30T23:06:16.215Z,0.60
2017-06-30T23:08:43.695Z,0.60
2017-06-30T23:11:11.959Z,0.77
2017-06-30T23:13:40.222Z,0.63
2017-06-30T23:16:07.723Z,0.70
2017-06-30T23:18:35.209Z,0.63
2017-06-30T23:21:02.698Z,0.50
2017-06-30T23:23:30.181Z,0.60
2017-06-30T23:25:57.675Z,0.57
2017-06-30T23:28:25.153Z,0.60
2017-06-30T23:30:53.395Z,0.67
2017-06-30T23:33:20.894Z,0.60
2017-06-30T23:35:48.378Z,0.50
2017-06-30T23:38:15.867Z,0.60
2017-06-30T23:40:43.343Z,0.60
2017-06-30T23:43:11.610Z,0.50
2017-06-30T23:45:39.855Z,0.70
2017-06-30T23:48:07.354Z,0.50
2017-06-30T23:50:34.838Z,0.67
2017-06-30T23:53:02.335Z,0.70
2017-06-30T23:55:29.819Z,0.77
2017-06-30T23:57:57.288Z,0.57
